Time;durP1;ratioP1;P1;durP2;ratioP2;P2;SDS_P1;SDS_P2;PMS_P1;PMS_P2;Temp;Humidity;BMP_temperature;BMP_pressure;BME280_temperature;BME280_humidity;BME280_pressure;Samples;Min_cycle;Max_cycle;Signal;HPM_P1;HPM_P2
2022/08/20 00:00:04;;;;;;;17.23;9.93;;;;;;;;;;5031033;28;20069;-70
2022/08/20 00:02:37;;;;;;;13.43;9.18;;;;;;;;;;5030232;28;20520;-70
2022/08/20 00:05:03;;;;;;;12.63;8.98;;;;;;;;;;5030783;28;20060;-71
2022/08/20 00:07:29;;;;;;;12.27;9.30;;;;;;;;;;5030513;28;20490;-70
2022/08/20 00:09:56;;;;;;;12.43;8.18;;;;;;;;;;5025371;28;20054;-70
2022/08/20 00:12:22;;;;;;;15.27;9.90;;;;;;;;;;5030972;28;20505;-70
2022/08/20 00:14:48;;;;;;;14.48;9.52;;;;;;;;;;5030859;28;20109;-70
2022/08/20 00:17:15;;;;;;;14.25;9.00;;;;;;;;;;5031178;28;20057;-70
2022/08/20 00:19:41;;;;;;;14.27;10.15;;;;;;;;;;5030445;28;20304;-70
2022/08/20 00:22:07;;;;;;;13.48;8.70;;;;;;;;;;5029138;28;20060;-70
2022/08/20 00:24:34;;;;;;;17.20;8.90;;;;;;;;;;5030275;28;20050;-70
2022/08/20 00:27:01;;;;;;;13.80;9.40;;;;;;;;;;5030217;28;20064;-71
2022/08/20 00:29:27;;;;;;;18.70;9.68;;;;;;;;;;5029740;28;20057;-70
2022/08/20 00:31:53;;;;;;;13.13;9.25;;;;;;;;;;5028909;28;20050;-70
2022/08/20 00:34:20;;;;;;;13.23;8.50;;;;;;;;;;5029833;28;20060;-70
2022/08/20 00:36:46;;;;;;;13.27;9.35;;;;;;;;;;5028770;28;20053;-70
2022/08/20 00:39:12;;;;;;;17.30;9.57;;;;;;;;;;5026711;28;20121;-69
2022/08/20 00:41:38;;;;;;;16.08;9.82;;;;;;;;;;5030490;28;20054;-70
2022/08/20 00:44:08;;;;;;;14.65;9.15;;;;;;;;;;5027801;28;20087;-69
2022/08/20 00:46:34;;;;;;;17.30;9.68;;;;;;;;;;5029674;28;20058;-69
2022/08/20 00:49:02;;;;;;;16.00;9.77;;;;;;;;;;5025296;28;20054;-70
2022/08/20 00:52:04;;;;;;;16.00;9.27;;;;;;;;;;5028400;28;20045;-70
2022/08/20 00:54:57;;;;;;;15.20;10.27;;;;;;;;;;5005910;28;20429;-69
2022/08/20 00:57:28;;;;;;;14.07;9.95;;;;;;;;;;5007974;28;20054;-69
2022/08/20 01:00:17;;;;;;;15.95;9.95;;;;;;;;;;5010565;28;20051;-69
2022/08/20 01:02:46;;;;;;;13.45;9.32;;;;;;;;;;5015796;28;20060;-69
2022/08/20 01:05:13;;;;;;;15.23;8.52;;;;;;;;;;5029938;28;20141;-69
2022/08/20 01:07:40;;;;;;;13.13;9.07;;;;;;;;;;5029130;28;20050;-69
2022/08/20 01:10:08;;;;;;;11.85;8.10;;;;;;;;;;5026063;28;20606;-69
2022/08/20 01:12:36;;;;;;;12.90;8.63;;;;;;;;;;5028128;28;20050;-69
2022/08/20 01:15:04;;;;;;;16.30;9.85;;;;;;;;;;5029290;28;20490;-69
2022/08/20 01:17:33;;;;;;;19.83;10.05;;;;;;;;;;5030107;28;20065;-68
2022/08/20 01:20:18;;;;;;;18.33;9.77;;;;;;;;;;5029815;28;20061;-68
2022/08/20 01:25:41;;;;;;;12.52;9.43;;;;;;;;;;5028773;28;20069;-68
2022/08/20 01:28:09;;;;;;;15.57;8.88;;;;;;;;;;5029084;28;20504;-68
2022/08/20 01:30:35;;;;;;;13.98;8.95;;;;;;;;;;5029853;28;20054;-67
2022/08/20 01:33:02;;;;;;;13.15;9.60;;;;;;;;;;5029314;28;20046;-68
2022/08/20 01:35:33;;;;;;;20.27;11.02;;;;;;;;;;5028863;28;20061;-68
2022/08/20 01:38:00;;;;;;;14.52;9.85;;;;;;;;;;5029100;28;20054;-67
2022/08/20 01:40:34;;;;;;;15.82;10.10;;;;;;;;;;5027783;28;20046;-68
2022/08/20 01:43:01;;;;;;;18.00;9.97;;;;;;;;;;5028892;28;20054;-68
2022/08/20 01:45:29;;;;;;;18.50;10.07;;;;;;;;;;5013144;28;20268;-68
2022/08/20 01:47:56;;;;;;;14.18;10.27;;;;;;;;;;5030164;28;20054;-68
2022/08/20 01:50:25;;;;;;;14.90;9.10;;;;;;;;;;5029955;28;20494;-68
2022/08/20 01:53:01;;;;;;;14.40;8.35;;;;;;;;;;5029789;28;20061;-68
2022/08/20 01:55:27;;;;;;;20.42;8.57;;;;;;;;;;5029379;28;20042;-68
2022/08/20 01:57:54;;;;;;;12.57;6.97;;;;;;;;;;5028078;28;20050;-68
2022/08/20 02:00:21;;;;;;;13.63;7.80;;;;;;;;;;5028587;28;20108;-68
2022/08/20 02:02:48;;;;;;;9.65;6.78;;;;;;;;;;5028025;28;20140;-68
2022/08/20 02:05:14;;;;;;;9.25;6.53;;;;;;;;;;5029737;28;20575;-68
2022/08/20 02:07:40;;;;;;;8.77;6.72;;;;;;;;;;5027859;28;20049;-68
2022/08/20 02:10:11;;;;;;;10.85;7.40;;;;;;;;;;5022188;28;20050;-70
